Flight Track Log - Related Links

Times and Time Zones

All times are in EDT time to prevent confusion due to time zone crossing. See the UAL1177 flight status page for this flight to view local times or setup timezone preferences in your user account.

Time Position Orientation Groundspeed Altitude Reporting Facility
EDT Latitude Longitude Course Direction KTS MPH feet Rate Location/Type
Sun 06:26:32 PM 35.8644 -78.8164 264° West 170 196 1,400  Level Washington Center
Sun 06:27:14 PM 35.8342 -78.8483 221° Southwest 201 231 2,500 2,214 Climbing Washington Center
Sun 06:28:15 PM 35.8261 -78.9197 262° West 254 292 5,200 2,675 Climbing Washington Center
Sun 06:28:37 PM 35.8340 -78.9560 264° West 254 292 6,200 1,277 Climbing FlightAware ADS-B
Sun 06:29:00 PM 35.8471 -79.1178 264° West  Level FlightAware Approximate
Sun 06:29:02 PM 35.8390 -78.9870 281° West 254 292 6,200  Level FlightAware ADS-B
Sun 06:29:28 PM 35.8650 -79.0214 295° West 262 302 8,400 3,767 Climbing Washington Center
Sun 06:30:28 PM 35.8689 -79.1036 273° West 244 281 11,600 2,331 Climbing Washington Center
Sun 06:31:00 PM 35.8397 -79.2073 264° West  Level FlightAware Approximate
Sun 06:31:29 PM 35.8533 -79.1978 259° West 282 325 13,100  Level Washington Center
Sun 06:32:29 PM 35.8353 -79.3172 259° West 325 374 16,200 2,579 Climbing Washington Center
Sun 06:33:30 PM 35.8275 -79.4244 265° West 339 390 18,300 2,132 Climbing Washington Center
Sun 06:35:46 PM 35.7872 -79.6919 260° West 345 397 23,200 1,990 Climbing Atlanta Center
Sun 06:36:46 PM 35.7664 -79.8133 258° West 351 404 24,800 1,368 Climbing Atlanta Center
Sun 06:42:12 PM 35.6520 -80.4830 258° West 377 434 32,000 1,149 Climbing FlightAware ADS-B
Sun 06:43:02 PM 35.6230 -80.5910 252° West 378 435 32,000  Level FlightAware ADS-B
Sun 06:43:52 PM 35.5940 -80.6950 251° West 378 435 32,000  Level FlightAware ADS-B
Sun 06:44:32 PM 35.5710 -80.7760 251° West 377 434 32,000  Level FlightAware ADS-B
Sun 06:45:12 PM 35.5480 -80.8590 251° West 375 432 32,000  Level FlightAware ADS-B
Sun 06:45:57 PM 35.5230 -80.9490 251° West 375 432 32,000  Level FlightAware ADS-B
Sun 06:46:37 PM 35.5010 -81.0290 251° West 375 432 32,000  Level FlightAware ADS-B
Sun 06:47:08 PM 35.4816 -81.0965 251° West 373 429 32,000  Level FlightAware ADS-B
Sun 06:47:59 PM 35.4527 -81.1984 251° West 374 430 32,000  Level FlightAware ADS-B
Sun 06:48:46 PM 35.4263 -81.2919 251° West 372 428 32,000  Level FlightAware ADS-B
Sun 06:49:16 PM 35.4092 -81.3519 251° West 372 428 32,000  Level FlightAware ADS-B
Sun 06:49:47 PM 35.3915 -81.4140 251° West 371 427 32,000  Level FlightAware ADS-B
Sun 06:50:19 PM 35.3735 -81.4770 251° West 371 427 32,000  Level FlightAware ADS-B
Sun 06:50:50 PM 35.3562 -81.5374 251° West 370 426 32,000  Level FlightAware ADS-B
Sun 06:51:20 PM 35.3394 -81.5963 251° West 367 422 32,000  Level FlightAware ADS-B
Sun 06:51:50 PM 35.3224 -81.6552 251° West 367 422 32,000  Level FlightAware ADS-B
Sun 06:52:20 PM 35.3053 -81.7146 251° West 369 425 32,000  Level FlightAware ADS-B
Sun 06:52:50 PM 35.2882 -81.7739 251° West 369 425 32,000  Level FlightAware ADS-B
Sun 06:53:21 PM 35.2709 -81.8341 251° West 366 421 32,000  Level FlightAware ADS-B
Sun 06:53:51 PM 35.2538 -81.8931 250° West 364 419 32,000  Level FlightAware ADS-B
Sun 06:54:23 PM 35.2362 -81.9534 250° West 362 417 32,000  Level FlightAware ADS-B
Sun 06:54:53 PM 35.2191 -82.0123 250° West 361 415 32,000  Level FlightAware ADS-B
Sun 06:55:24 PM 35.2022 -82.0701 250° West 360 414 32,000  Level FlightAware ADS-B
Sun 06:55:54 PM 35.1852 -82.1283 250° West 359 413 32,000  Level FlightAware ADS-B
Sun 06:56:24 PM 35.1685 -82.1851 250° West 349 402 32,000  Level FlightAware ADS-B
Sun 06:56:54 PM 35.1525 -82.2397 250° West 339 390 32,000  Level FlightAware ADS-B
Sun 06:57:15 PM 35.1419 -82.2758 250° West 335 386 32,000  Level FlightAware ADS-B
Sun 06:57:49 PM 35.1243 -82.3356 250° West 329 379 32,000  Level FlightAware ADS-B
Sun 06:58:20 PM 35.1084 -82.3896 250° West 326 375 32,000 727 Level FlightAware ADS-B
Sun 06:58:55 PM 35.0901 -82.4512 250° West 325 374 32,800 1,676 Climbing FlightAware ADS-B
Sun 06:59:28 PM 35.0739 -82.5066 250° West 312 359 33,900 1,125 Climbing FlightAware ADS-B
Sun 06:59:59 PM 35.0587 -82.5578 250° West 319 367 34,000 98 Climbing FlightAware ADS-B
Sun 07:00:29 PM 35.0433 -82.6095 250° West 329 379 34,000  Level FlightAware ADS-B
Sun 07:00:59 PM 35.0274 -82.6626 250° West 331 381 34,000  Level FlightAware ADS-B
Sun 07:01:29 PM 35.0118 -82.7151 250° West 333 383 34,000  Level FlightAware ADS-B
Sun 07:02:00 PM 34.9961 -82.7682 250° West 333 383 34,000  Level FlightAware ADS-B
Sun 07:02:30 PM 34.9800 -82.8217 250° West 331 381 34,000  Level FlightAware ADS-B
Sun 07:03:00 PM 34.9642 -82.8739 250° West 326 375 34,000  Level FlightAware ADS-B
Sun 07:03:30 PM 34.9487 -82.9253 250° West 325 374 34,000  Level FlightAware ADS-B
Sun 07:04:00 PM 34.9332 -82.9769 250° West 324 373 34,000  Level FlightAware ADS-B
Sun 07:04:33 PM 34.9164 -83.0328 250° West 324 373 34,000  Level FlightAware ADS-B
Sun 07:05:05 PM 34.8998 -83.0877 250° West 325 374 34,000  Level FlightAware ADS-B
Sun 07:05:36 PM 34.8840 -83.1399 250° West 326 375 34,000  Level FlightAware ADS-B
Sun 07:06:06 PM 34.8679 -83.1930 250° West 326 375 34,000  Level FlightAware ADS-B
Sun 07:06:37 PM 34.8521 -83.2447 250° West 326 375 34,000  Level FlightAware ADS-B
Sun 07:07:05 PM 34.8371 -83.2936 250° West 326 375 34,000  Level FlightAware ADS-B
Sun 07:07:36 PM 34.8210 -83.3463 250° West 326 375 34,000  Level FlightAware ADS-B
Sun 07:08:06 PM 34.8054 -83.3981 250° West 327 376 34,000  Level FlightAware ADS-B
Sun 07:08:37 PM 34.7891 -83.4516 250° West 328 377 34,000  Level FlightAware ADS-B
Sun 07:09:07 PM 34.7731 -83.5038 250° West 331 381 34,000  Level FlightAware ADS-B
Sun 07:09:38 PM 34.7565 -83.5578 249° West 332 382 34,000  Level FlightAware ADS-B
Sun 07:10:08 PM 34.7403 -83.6103 249° West 333 383 34,000  Level FlightAware ADS-B
Sun 07:10:38 PM 34.7239 -83.6635 249° West 333 383 34,000  Level FlightAware ADS-B
Sun 07:11:09 PM 34.7075 -83.7167 249° West 333 383 34,000  Level FlightAware ADS-B
Sun 07:11:39 PM 34.6910 -83.7698 249° West 334 384 34,000  Level FlightAware ADS-B
Sun 07:12:10 PM 34.6746 -83.8229 249° West 333 383 34,000  Level FlightAware ADS-B
Sun 07:12:40 PM 34.6583 -83.8756 249° West 332 382 34,000  Level FlightAware ADS-B
Sun 07:13:10 PM 34.6417 -83.9287 249° West 331 381 34,000  Level FlightAware ADS-B
Sun 07:13:43 PM 34.6241 -83.9853 249° West 331 381 34,000  Level FlightAware ADS-B
Sun 07:14:13 PM 34.6076 -84.0380 249° West 331 381 34,000  Level FlightAware ADS-B
Sun 07:14:44 PM 34.5911 -84.0911 249° West 331 381 34,000  Level FlightAware ADS-B
Sun 07:15:14 PM 34.5747 -84.1432 249° West 333 383 34,000  Level FlightAware ADS-B
Sun 07:15:44 PM 34.5581 -84.1962 249° West 335 386 34,000  Level FlightAware ADS-B
Sun 07:16:15 PM 34.5412 -84.2499 249° West 336 387 34,000  Level FlightAware ADS-B
Sun 07:16:45 PM 34.5244 -84.3031 249° West 338 389 34,000  Level FlightAware ADS-B
Sun 07:17:16 PM 34.5070 -84.3583 249° West 339 390 34,000  Level FlightAware ADS-B
Sun 07:17:50 PM 34.4881 -84.4180 249° West 341 392 34,000  Level FlightAware ADS-B
Sun 07:18:20 PM 34.4710 -84.4719 249° West 340 391 34,000  Level FlightAware ADS-B
Sun 07:18:51 PM 34.4538 -84.5263 249° West 341 392 34,000  Level FlightAware ADS-B
Sun 07:19:23 PM 34.4354 -84.5842 249° West 342 394 34,000  Level FlightAware ADS-B
Sun 07:19:55 PM 34.4177 -84.6398 249° West 342 394 34,000  Level FlightAware ADS-B
Sun 07:20:26 PM 34.3997 -84.6960 249° West 343 395 34,000  Level FlightAware ADS-B
Sun 07:20:57 PM 34.3820 -84.7512 249° West 344 396 34,000  Level FlightAware ADS-B
Sun 07:21:27 PM 34.3646 -84.8056 249° West 344 396 34,000  Level FlightAware ADS-B
Sun 07:21:58 PM 34.3470 -84.8607 249° West 343 395 34,000  Level FlightAware ADS-B
Sun 07:22:29 PM 34.3293 -84.9157 249° West 343 395 34,000  Level FlightAware ADS-B
Sun 07:22:59 PM 34.3121 -84.9692 249° West 342 394 34,000  Level FlightAware ADS-B
Sun 07:23:29 PM 34.2948 -85.0228 249° West 342 394 34,000  Level FlightAware ADS-B
Sun 07:24:00 PM 34.2772 -85.0775 249° West 341 392 34,000  Level FlightAware ADS-B
Sun 07:24:33 PM 34.2584 -85.1356 249° West 341 392 34,000  Level FlightAware ADS-B
Sun 07:25:04 PM 34.2406 -85.1906 249° West 340 391 34,000  Level FlightAware ADS-B
Sun 07:25:35 PM 34.2226 -85.2458 248° West 339 390 34,000  Level FlightAware ADS-B
Sun 07:26:27 PM 34.1927 -85.3375 249° West 340 391 34,000  Level FlightAware ADS-B
Sun 07:27:00 PM 34.1740 -85.3951 249° West 339 390 34,000  Level FlightAware ADS-B
Sun 07:27:32 PM 34.1640 -85.4250 248° West 337 388 34,000  Level FlightAware ADS-B
Sun 07:28:07 PM 34.1380 -85.5060 249° West 337 388 34,000  Level FlightAware ADS-B
Sun 07:28:57 PM 34.1150 -85.5780 249° West 337 388 34,000  Level FlightAware ADS-B
Sun 07:29:37 PM 34.0960 -85.6380 249° West 337 388 34,000  Level FlightAware ADS-B
Sun 07:30:17 PM 34.0770 -85.6970 249° West 337 388 34,000  Level FlightAware ADS-B
Sun 07:30:57 PM 34.0580 -85.7570 249° West 337 388 34,000  Level FlightAware ADS-B
Sun 07:31:31 PM 34.0175 -85.8700 247° West 340 391 34,000  Level FlightAware ADS-B
Sun 07:32:02 PM 33.9996 -85.9239 248° West 340 391 34,000  Level FlightAware ADS-B
Sun 07:32:34 PM 33.9809 -85.9803 248° West 341 392 34,000  Level FlightAware ADS-B
Sun 07:33:10 PM 33.9598 -86.0435 248° West 341 392 34,000  Level FlightAware ADS-B
Sun 07:34:12 PM 33.9229 -86.1537 248° West 342 394 34,000  Level FlightAware ADS-B
Sun 07:35:52 PM 33.8660 -86.3240 248° West 34,000  Level FlightAware ADS-B
Sun 07:36:37 PM 33.8390 -86.4020 247° West 339 390 34,000  Level FlightAware ADS-B
Sun 07:37:12 PM 33.8220 -86.4550 249° West 337 388 34,000  Level FlightAware ADS-B
Sun 07:38:02 PM 33.7900 -86.5490 248° West 337 388 34,000  Level FlightAware ADS-B
Sun 07:38:42 PM 33.7670 -86.6170 248° West 337 388 34,000  Level FlightAware ADS-B
Sun 07:39:27 PM 33.7400 -86.6950 247° West 338 389 34,000  Level FlightAware ADS-B
Sun 07:40:02 PM 33.7220 -86.7490 248° West 338 389 34,000  Level FlightAware ADS-B
Sun 07:40:47 PM 33.6930 -86.8340 248° West 338 389 34,000  Level FlightAware ADS-B
Sun 07:41:32 PM 33.6660 -86.9110 247° West 337 388 34,000  Level FlightAware ADS-B
Sun 07:42:12 PM 33.6460 -86.9710 248° West 338 389 34,000  Level FlightAware ADS-B
Sun 07:43:07 PM 33.6140 -87.0660 248° West 340 391 34,000  Level FlightAware ADS-B
Sun 07:43:47 PM 33.5940 -87.1260 248° West 340 391 34,000  Level FlightAware ADS-B
Sun 07:44:27 PM 33.5740 -87.1860 248° West 340 391 34,000  Level FlightAware ADS-B
Sun 07:45:07 PM 33.5540 -87.2450 248° West 340 391 34,000  Level FlightAware ADS-B
Sun 07:45:57 PM 33.5290 -87.3190 248° West 340 391 34,000  Level FlightAware ADS-B
Sun 07:46:37 PM 33.5090 -87.3790 248° West 340 391 34,000  Level FlightAware ADS-B
Sun 07:47:17 PM 33.4890 -87.4380 248° West 340 391 34,000  Level FlightAware ADS-B
Sun 07:47:57 PM 33.4690 -87.4980 248° West 340 391 34,000  Level FlightAware ADS-B
Sun 07:48:37 PM 33.4490 -87.5570 248° West 340 391 34,000  Level FlightAware ADS-B
Sun 07:49:27 PM 33.4230 -87.6310 247° West 340 391 34,000  Level FlightAware ADS-B
Sun 07:50:07 PM 33.4030 -87.6910 248° West 340 391 34,000  Level FlightAware ADS-B
Sun 07:50:47 PM 33.3830 -87.7500 248° West 340 391 34,000  Level FlightAware ADS-B
Sun 07:51:27 PM 33.3630 -87.8100 248° West 340 391 34,000  Level FlightAware ADS-B
Sun 07:52:07 PM 33.3430 -87.8690 248° West 340 391 34,000  Level FlightAware ADS-B
Sun 07:53:20 PM 33.2408 -88.1367 248° West 341 392 34,000  Level Memphis Center
Sun 07:54:20 PM 33.2092 -88.2417 250° West 341 392 34,000  Level Memphis Center
Sun 07:55:20 PM 33.1714 -88.3494 247° West 341 392 34,000  Level Memphis Center
Sun 07:56:20 PM 33.1333 -88.4544 247° West 341 392 34,000  Level Memphis Center
Sun 07:57:20 PM 33.0972 -88.5594 248° West 341 392 34,000  Level Memphis Center
Sun 07:58:20 PM 33.0611 -88.6592 247° West 341 392 34,000  Level Memphis Center
Sun 07:59:20 PM 33.0208 -88.7692 246° West 341 392 34,000  Level Memphis Center
Sun 08:00:20 PM 32.9844 -88.8714 247° West 341 392 34,000  Level Memphis Center
Sun 08:01:20 PM 32.9461 -88.9758 246° West 341 392 34,000  Level Memphis Center
Sun 08:02:20 PM 32.9075 -89.0806 246° West 341 392 34,000  Level Memphis Center
Sun 08:03:20 PM 32.8647 -89.1997 247° West 346 398 34,000  Level Memphis Center
Sun 08:04:20 PM 32.8281 -89.3042 247° West 346 398 34,000  Level Memphis Center
Sun 08:05:20 PM 32.7872 -89.4083 245° Southwest 346 398 34,000  Level Memphis Center
Sun 08:06:20 PM 32.7567 -89.4953 247° West 351 404 34,000  Level Memphis Center
Sun 08:07:20 PM 32.7133 -89.6067 245° Southwest 351 404 34,000  Level Memphis Center
Sun 08:08:20 PM 32.6764 -89.7131 248° West 351 404 34,000  Level Memphis Center
Sun 08:09:20 PM 32.6353 -89.8194 245° Southwest 356 410 34,000  Level Memphis Center
Sun 08:10:20 PM 32.5981 -89.9233 247° West 356 410 34,000  Level Memphis Center
Sun 08:11:20 PM 32.5586 -90.0294 246° West 356 410 34,000  Level Memphis Center
Sun 08:12:20 PM 32.5194 -90.1356 246° West 356 410 34,000  Level Memphis Center
Sun 08:13:20 PM 32.4694 -90.2392 240° Southwest 356 410 34,000  Level Memphis Center
Sun 08:14:20 PM 32.4194 -90.3375 239° Southwest 356 410 34,000  Level Memphis Center
Sun 08:15:20 PM 32.3672 -90.4361 238° Southwest 356 410 34,000  Level Memphis Center
Sun 08:16:20 PM 32.3147 -90.5367 238° Southwest 361 415 34,000  Level Memphis Center
Sun 08:17:20 PM 32.2583 -90.6447 238° Southwest 361 415 34,000  Level Memphis Center
Sun 08:19:13 PM 32.1656 -90.8203 238° Southwest 356 410 34,000  Level Houston Center
Sun 08:20:14 PM 32.1133 -90.9208 239° Southwest 359 413 34,000  Level Houston Center
Sun 08:21:16 PM 32.0603 -91.0197 238° Southwest 359 413 34,000  Level Houston Center
Sun 08:22:18 PM 31.9967 -91.1386 238° Southwest 358 412 34,000  Level Houston Center
Sun 08:27:52 PM 31.6962 -91.6974 238° Southwest 363 418 34,000  Level FlightAware ADS-B
Sun 08:32:07 PM 31.4653 -92.1216 238° Southwest 364 419 34,000  Level FlightAware ADS-B
Sun 08:33:03 PM 31.4149 -92.2134 237° Southwest 363 418 34,000  Level FlightAware ADS-B
Sun 08:33:36 PM 31.3850 -92.2679 237° Southwest 365 420 34,000  Level FlightAware ADS-B
Sun 08:34:06 PM 31.3575 -92.3181 237° Southwest 364 419 34,000  Level FlightAware ADS-B
Sun 08:34:42 PM 31.3248 -92.3776 237° Southwest 366 421 34,000  Level FlightAware ADS-B
Sun 08:35:13 PM 31.2963 -92.4294 237° Southwest 366 421 34,000  Level FlightAware ADS-B
Sun 08:35:43 PM 31.2686 -92.4796 237° Southwest 366 421 34,000  Level FlightAware ADS-B
Sun 08:36:45 PM 31.2113 -92.5825 237° Southwest 368 423 34,000  Level FlightAware ADS-B
Sun 08:37:16 PM 31.1826 -92.6342 237° Southwest 368 423 34,000  Level FlightAware ADS-B
Sun 08:37:51 PM 31.1499 -92.6927 237° Southwest 369 425 34,000  Level FlightAware ADS-B
Sun 08:38:49 PM 31.0962 -92.7893 237° Southwest 370 426 34,000 -135 Level FlightAware ADS-B
Sun 08:39:20 PM 31.0671 -92.8410 237° Southwest 371 427 33,800 -677 Descending FlightAware ADS-B
Sun 08:39:51 PM 31.0381 -92.8926 237° Southwest 376 433 33,300 -871 Descending FlightAware ADS-B
Sun 08:40:22 PM 31.0086 -92.9447 237° Southwest 378 435 32,900 -885 Descending FlightAware ADS-B
Sun 08:40:52 PM 30.9796 -92.9965 237° Southwest 380 437 32,400 -984 Descending FlightAware ADS-B
Sun 08:41:23 PM 30.9500 -93.0496 237° Southwest 380 437 31,900 -984 Descending FlightAware ADS-B
Sun 08:41:53 PM 30.9208 -93.1013 237° Southwest 382 440 31,400 -984 Descending FlightAware ADS-B
Sun 08:42:24 PM 30.8906 -93.1547 237° Southwest 384 442 30,900 -968 Descending FlightAware ADS-B
Sun 08:42:55 PM 30.8602 -93.2080 236° Southwest 386 444 30,400 -968 Descending FlightAware ADS-B
Sun 08:43:26 PM 30.8298 -93.2617 237° Southwest 386 444 29,900 -1,065 Descending FlightAware ADS-B
Sun 08:43:57 PM 30.7995 -93.3153 237° Southwest 384 442 29,300 -1,082 Descending FlightAware ADS-B
Sun 08:44:27 PM 30.7702 -93.3671 237° Southwest 381 438 28,800 -984 Descending FlightAware ADS-B
Sun 08:44:58 PM 30.7404 -93.4196 237° Southwest 377 434 28,300 -1,065 Descending FlightAware ADS-B
Sun 08:45:29 PM 30.7108 -93.4716 237° Southwest 375 432 27,700 -1,065 Descending FlightAware ADS-B
Sun 08:46:00 PM 30.6808 -93.5241 236° Southwest 371 427 27,200 -1,048 Descending FlightAware ADS-B
Sun 08:46:32 PM 30.6502 -93.5774 236° Southwest 374 430 26,600 -1,031 Descending FlightAware ADS-B
Sun 08:47:04 PM 30.6205 -93.6295 236° Southwest 375 432 26,100 -968 Descending FlightAware ADS-B
Sun 08:47:34 PM 30.5910 -93.6812 236° Southwest 378 435 25,600 -1,000 Descending FlightAware ADS-B
Sun 08:48:04 PM 30.5620 -93.7321 237° Southwest 381 438 25,100 -1,014 Descending FlightAware ADS-B
Sun 08:48:45 PM 30.5222 -93.8015 236° Southwest 382 440 24,400 -1,083 Descending FlightAware ADS-B
Sun 08:49:16 PM 30.4912 -93.8553 236° Southwest 384 442 23,800 -1,645 Descending FlightAware ADS-B
Sun 08:49:47 PM 30.4613 -93.9071 236° Southwest 376 433 22,700 -2,323 Descending FlightAware ADS-B
Sun 08:50:18 PM 30.4315 -93.9584 236° Southwest 370 426 21,400 -2,459 Descending FlightAware ADS-B
Sun 08:50:48 PM 30.4032 -94.0075 236° Southwest 364 419 20,200 -2,459 Descending FlightAware ADS-B
Sun 08:51:19 PM 30.3740 -94.0583 236° Southwest 361 415 18,900 -2,419 Descending FlightAware ADS-B
Sun 08:51:50 PM 30.3461 -94.1069 236° Southwest 357 411 17,700 -2,429 Descending FlightAware ADS-B
Sun 08:52:01 PM 30.3361 -94.1243 236° Southwest 356 410 17,200 -2,400 Descending FlightAware ADS-B
Sun 08:52:10 PM 30.3289 -94.1388 240° Southwest 353 406 16,900 -1,636 Descending FlightAware ADS-B
Sun 08:52:23 PM 30.3201 -94.1617 246° West 344 396 16,600 -1,674 Descending FlightAware ADS-B
Sun 08:52:53 PM 30.3040 -94.2169 251° West 377 434 15,700 -1,869 Descending FlightAware ADS-B
Sun 08:53:24 PM 30.2869 -94.2766 252° West 388 447 14,700 -1,869 Descending FlightAware ADS-B
Sun 08:53:54 PM 30.2700 -94.3353 252° West 383 441 13,800 -1,600 Descending FlightAware ADS-B
Sun 08:54:24 PM 30.2529 -94.3941 251° West 380 437 13,100 -1,258 Descending FlightAware ADS-B
Sun 08:54:56 PM 30.2356 -94.4540 252° West 377 434 12,500 -1,258 Descending FlightAware ADS-B
Sun 08:55:26 PM 30.2188 -94.5119 251° West 379 436 11,800 -1,300 Descending FlightAware ADS-B
Sun 08:55:56 PM 30.2022 -94.5694 252° West 373 429 11,200 -1,279 Descending FlightAware ADS-B
Sun 08:56:27 PM 30.1849 -94.6283 251° West 373 429 10,500 -1,333 Descending FlightAware ADS-B
Sun 08:56:50 PM 30.1725 -94.6710 251° West 371 427 10,000 -1,077 Descending FlightAware ADS-B
Sun 08:57:06 PM 30.1641 -94.6999 251° West 370 426 9,800 -387 Descending FlightAware ADS-B
Sun 08:57:21 PM 30.1559 -94.7279 251° West 369 425 9,800  Level FlightAware ADS-B
Sun 08:57:36 PM 30.1475 -94.7565 251° West 368 423 9,800  Level FlightAware ADS-B
Sun 08:57:53 PM 30.1383 -94.7878 251° West 368 423 9,800  Level FlightAware ADS-B
Sun 08:58:08 PM 30.1302 -94.8157 251° West 369 425 9,800  Level FlightAware ADS-B
Sun 08:58:23 PM 30.1217 -94.8448 251° West 371 427 9,800  Level FlightAware ADS-B
Sun 08:58:35 PM 30.1150 -94.8681 252° West 372 428 9,800  Level FlightAware ADS-B
Sun 08:58:42 PM 30.1119 -94.8813 255° West 372 428 9,800  Level FlightAware ADS-B
Sun 08:58:48 PM 30.1098 -94.8920 257° West 372 428 9,800  Level FlightAware ADS-B
Sun 08:58:54 PM 30.1081 -94.9029 260° West 372 428 9,800  Level FlightAware ADS-B
Sun 08:59:02 PM 30.1064 -94.9189 263° West 371 427 9,800  Level FlightAware ADS-B
Sun 08:59:09 PM 30.1056 -94.9330 266° West 370 426 9,800  Level FlightAware ADS-B
Sun 08:59:24 PM 30.1056 -94.9634 270° West 370 426 9,800  Level FlightAware ADS-B
Sun 08:59:40 PM 30.1057 -94.9933 270° West 355 409 9,800  Level FlightAware ADS-B
Sun 08:59:55 PM 30.1058 -95.0216 270° West 336 387 9,800  Level FlightAware ADS-B
Sun 09:00:10 PM 30.1058 -95.0478 270° West 318 366 9,800 -200 Level FlightAware ADS-B
Sun 09:00:25 PM 30.1058 -95.0730 270° West 303 349 9,700 -387 Descending FlightAware ADS-B
Sun 09:00:41 PM 30.1058 -95.0979 270° West 291 335 9,600 -938 Descending FlightAware ADS-B
Sun 09:00:57 PM 30.1059 -95.1223 270° West 290 334 9,200 -1,556 Descending FlightAware ADS-B
Sun 09:01:08 PM 30.1060 -95.1389 270° West 288 331 8,900 -1,385 Descending FlightAware ADS-B
Sun 09:01:23 PM 30.1061 -95.1618 270° West 286 329 8,600 -1,200 Descending FlightAware ADS-B
Sun 09:01:38 PM 30.1062 -95.1854 270° West 284 327 8,300 -1,548 Descending FlightAware ADS-B
Sun 09:01:54 PM 30.1064 -95.2093 271° West 284 327 7,800 -1,688 Descending FlightAware ADS-B
Sun 09:02:10 PM 30.1065 -95.2335 270° West 285 328 7,400 -1,548 Descending FlightAware ADS-B
Sun 09:02:25 PM 30.1066 -95.2563 270° West 285 328 7,000 -1,459 Descending FlightAware ADS-B
Sun 09:02:47 PM 30.1069 -95.2897 271° West 286 329 6,500 -1,459 Descending FlightAware ADS-B
Sun 09:03:02 PM 30.1068 -95.3126 270° West 284 327 6,100 -1,355 Descending FlightAware ADS-B
Sun 09:03:18 PM 30.1068 -95.3364 270° West 281 323 5,800 -581 Descending FlightAware ADS-B
Sun 09:03:33 PM 30.1068 -95.3594 270° West 278 320 5,800 -800 Level FlightAware ADS-B
Sun 09:03:48 PM 30.1068 -95.3815 270° West 276 318 5,400 -1,400 Descending FlightAware ADS-B
Sun 09:04:03 PM 30.1068 -95.4035 270° West 274 315 5,100 -1,200 Descending FlightAware ADS-B
Sun 09:04:18 PM 30.1068 -95.4257 270° West 272 313 4,800 -1,355 Descending FlightAware ADS-B
Sun 09:04:34 PM 30.1068 -95.4487 270° West 270 311 4,400 -1,500 Descending FlightAware ADS-B
Sun 09:04:54 PM 30.1068 -95.4771 270° West 271 312 3,900 -1,400 Descending FlightAware ADS-B
Sun 09:05:04 PM 30.1049 -95.4916 261° West 272 313 3,700 -1,286 Descending FlightAware ADS-B
Sun 09:05:08 PM 30.1031 -95.4969 249° West 272 313 3,600 -1,200 Descending FlightAware ADS-B
Sun 09:05:14 PM 30.0999 -95.5038 242° Southwest 274 315 3,500 -1,333 Descending FlightAware ADS-B
Sun 09:05:17 PM 30.0969 -95.5085 234° Southwest 274 315 3,400 -1,714 Descending FlightAware ADS-B
Sun 09:05:21 PM 30.0943 -95.5116 226° Southwest 275 316 3,300 -1,500 Descending FlightAware ADS-B
Sun 09:05:25 PM 30.0896 -95.5162 220° Southwest 276 318 3,200 -2,000 Descending FlightAware ADS-B
Sun 09:05:30 PM 30.0842 -95.5201 212° Southwest 276 318 3,000 -1,500 Descending FlightAware ADS-B
Sun 09:05:37 PM 30.0769 -95.5236 203° Southwest 277 319 2,900 -1,200 Descending FlightAware ADS-B
Sun 09:05:40 PM 30.0729 -95.5248 195° South 277 319 2,800 -1,714 Descending FlightAware ADS-B
Sun 09:05:44 PM 30.0671 -95.5257 188° South 277 319 2,700 -1,200 Descending FlightAware ADS-B
Sun 09:05:50 PM 30.0599 -95.5255 179° South 275 316 2,600 -600 Descending FlightAware ADS-B
Sun 09:05:54 PM 30.0551 -95.5244 169° South 270 311 2,600  Level FlightAware ADS-B
Sun 09:05:57 PM 30.0517 -95.5232 163° South 263 303 2,600  Level FlightAware ADS-B
Sun 09:06:01 PM 30.0467 -95.5207 157° South 255 293 2,600  Level FlightAware ADS-B
Sun 09:06:07 PM 30.0410 -95.5168 149° Southeast 249 287 2,600  Level FlightAware ADS-B
Sun 09:06:18 PM 30.0310 -95.5088 145° Southeast 239 275 2,600  Level FlightAware ADS-B
Sun 09:06:24 PM 30.0259 -95.5036 139° Southeast 234 269 2,600 -545 Level FlightAware ADS-B
Sun 09:06:29 PM 30.0228 -95.4991 129° Southeast 233 268 2,500 -1,500 Descending FlightAware ADS-B
Sun 09:06:32 PM 30.0212 -95.4960 121° Southeast 229 264 2,400 -857 Descending FlightAware ADS-B
Sun 09:06:36 PM 30.0195 -95.4916 114° Southeast 227 261 2,400 -353 Level FlightAware ADS-B
Sun 09:06:49 PM 30.0154 -95.4769 108° East 210 242 2,300 -706 Descending FlightAware ADS-B
Sun 09:07:10 PM 30.0104 -95.4562 106° East 189 217 2,000 -1,034 Descending FlightAware ADS-B
Sun 09:07:18 PM 30.0086 -95.4486 105° East 182 209 1,800 -857 Descending FlightAware ADS-B
Sun 09:07:24 PM 30.0077 -95.4433 101° East 173 199 1,800 -947 Level FlightAware ADS-B
Sun 09:07:37 PM 30.0070 -95.4319 94° East 163 188 1,500 -1,714 Descending FlightAware ADS-B
Sun 09:07:45 PM 30.0069 -95.4249 91° East 165 190 1,200 -2,143 Descending FlightAware ADS-B
Sun 09:07:51 PM 30.0069 -95.4198 90° East 163 188 1,000 -1,385 Descending FlightAware ADS-B
Sun 09:07:58 PM 30.0070 -95.4136 89° East 159 183 900 -1,143 Descending FlightAware ADS-B
Sun 09:08:12 PM 30.0072 -95.4021 89° East 150 173 600 -1,071 Descending FlightAware ADS-B
Sun 09:08:26 PM 30.0072 -95.3909 90° East 150 173 400 -818 Descending FlightAware ADS-B
Sun 09:08:34 PM 30.0071 -95.3839 91° East 149 171 300 -522 Descending FlightAware ADS-B
Sun 09:08:49 PM 30.0072 -95.3726 89° East 149 171 200 -400 Descending FlightAware ADS-B

Login

Don't have an account? Register now (free) for customized features, flight alerts, and more!